KCGF

Cuyahoga County Airport

Cleveland, Ohio, USA
METAR KCGF 221345Z 24009KT 10SM SCT120 06/M00 A3013
Observed Flight Rules
Oct-22 @ 13:45 UTC (36 minutes ago) Visual Flight Rules
Wind Visibility Clouds
240° at 9 knots 10 miles
  • Scattered at 12,000' AGL
Temperatures Readings
Current 6°C / 43°F
Dewpoint 0°C / 32°F
Humidity 66%
Altimeter 30.13" Hg
Pressure 1020 hPa
Elevation 268
METAR KCGF 221345Z 24009KT 10SM SCT120 06/M00 A3013
Observed Flight Rules
Oct-22 @ 13:45 UTC
(36 minutes ago)
VFR
Wind Visibility
240° at 9 knots 10 miles
Clouds
  • Scattered at 12,000' AGL
Temperature Dewpoint
6°C / 43°F 0°C / 32°F
Humidity Altimeter Pressure
66% 30.13" Hg 1020 hPa